createdAt,value
2022-11-07T00:01:10.498Z,3.97
2022-11-07T00:03:37.545Z,4.97
2022-11-07T00:06:04.864Z,4.60
2022-11-07T00:08:31.933Z,4.05
2022-11-07T00:11:01.556Z,4.78
2022-11-07T00:13:29.079Z,4.25
2022-11-07T00:15:59.526Z,3.97
2022-11-07T00:18:26.820Z,4.43
2022-11-07T00:20:53.850Z,4.05
2022-11-07T00:23:20.869Z,4.20
2022-11-07T00:25:47.878Z,4.25
2022-11-07T00:28:16.498Z,3.90
2022-11-07T00:30:43.800Z,4.10
2022-11-07T00:33:10.812Z,4.18
2022-11-07T00:35:41.252Z,4.15
2022-11-07T00:38:08.261Z,4.22
2022-11-07T00:40:35.615Z,4.05
2022-11-07T00:43:02.587Z,3.35
2022-11-07T00:45:31.183Z,3.80
2022-11-07T00:47:58.161Z,3.38
2022-11-07T00:50:25.452Z,3.47
2022-11-07T00:52:52.418Z,3.33
2022-11-07T00:55:19.416Z,3.30
2022-11-07T00:57:46.381Z,3.10
2022-11-07T01:00:14.121Z,3.05
2022-11-07T01:02:42.744Z,3.70
2022-11-07T01:05:13.231Z,2.90
2022-11-07T01:07:40.667Z,2.90
2022-11-07T01:10:08.107Z,3.20
2022-11-07T01:12:35.758Z,3.78
2022-11-07T01:15:02.895Z,3.20
2022-11-07T01:17:29.932Z,3.72
2022-11-07T01:19:58.217Z,2.90
2022-11-07T01:22:25.192Z,3.25
2022-11-07T01:24:52.358Z,3.38
2022-11-07T01:27:19.347Z,3.17
2022-11-07T01:29:46.397Z,3.40
2022-11-07T01:32:14.016Z,3.08
2022-11-07T01:34:41.046Z,2.60
2022-11-07T01:37:09.779Z,2.95
2022-11-07T01:39:36.974Z,2.88
2022-11-07T01:42:04.583Z,2.90
2022-11-07T01:44:56.350Z,3.10
2022-11-07T01:47:26.836Z,2.75
2022-11-07T01:49:54.747Z,3.13
2022-11-07T01:52:26.312Z,2.97
2022-11-07T01:54:57.582Z,3.22
2022-11-07T01:57:29.533Z,2.97
2022-11-07T02:00:00.451Z,2.97
2022-11-07T02:02:28.429Z,3.13
2022-11-07T02:04:58.267Z,2.88
2022-11-07T02:07:26.948Z,2.83
2022-11-07T02:09:55.155Z,3.00
2022-11-07T02:12:24.781Z,3.10
2022-11-07T02:14:52.143Z,3.08
2022-11-07T02:17:19.715Z,3.35
2022-11-07T02:19:49.442Z,3.13
2022-11-07T02:22:26.078Z,2.90
2022-11-07T02:24:57.475Z,3.10
2022-11-07T02:27:27.246Z,3.70
2022-11-07T02:30:00.563Z,3.13
2022-11-07T02:32:28.058Z,3.80
2022-11-07T02:34:59.078Z,3.47
2022-11-07T02:37:31.545Z,3.80
2022-11-07T02:40:03.519Z,3.58
2022-11-07T02:42:43.700Z,3.40
2022-11-07T02:45:13.658Z,3.40
2022-11-07T02:47:41.002Z,4.45
2022-11-07T02:50:09.615Z,3.42
2022-11-07T02:52:37.016Z,3.30
2022-11-07T02:55:07.559Z,3.78
2022-11-07T02:57:35.086Z,3.53
2022-11-07T03:00:02.487Z,3.70
2022-11-07T03:02:29.693Z,3.35
2022-11-07T03:04:56.781Z,3.97
2022-11-07T03:07:24.051Z,3.92
2022-11-07T03:09:51.011Z,3.90
2022-11-07T03:12:19.764Z,3.50
2022-11-07T03:14:46.911Z,3.78
2022-11-07T03:17:14.191Z,3.70
2022-11-07T03:19:41.605Z,3.35
2022-11-07T03:22:08.708Z,3.85
2022-11-07T03:24:35.834Z,3.70
2022-11-07T03:27:02.878Z,3.70
2022-11-07T03:29:31.403Z,3.85
2022-11-07T03:31:58.594Z,3.42
2022-11-07T03:34:25.484Z,3.75
2022-11-07T03:36:52.427Z,3.50
2022-11-07T03:39:23.188Z,3.65
2022-11-07T03:41:52.676Z,3.15
2022-11-07T03:44:19.816Z,4.07
2022-11-07T03:46:48.189Z,3.63
2022-11-07T03:49:15.139Z,4.13
2022-11-07T03:51:42.111Z,3.58
2022-11-07T03:54:09.144Z,3.65
2022-11-07T03:56:36.085Z,3.55
2022-11-07T03:59:03.043Z,3.15
2022-11-07T04:01:30.248Z,3.80
2022-11-07T04:03:59.079Z,2.90
2022-11-07T04:06:26.051Z,3.72
2022-11-07T04:08:53.122Z,4.13
2022-11-07T04:11:38.458Z,3.15
2022-11-07T04:14:23.945Z,3.28
2022-11-07T04:17:09.556Z,3.53
2022-11-07T04:19:37.934Z,2.83
2022-11-07T04:22:04.919Z,3.03
2022-11-07T04:24:31.933Z,3.05
2022-11-07T04:27:17.238Z,3.10
2022-11-07T04:29:44.336Z,3.63
2022-11-07T04:32:11.371Z,2.67
2022-11-07T04:34:39.935Z,4.03
2022-11-07T04:37:06.915Z,2.78
2022-11-07T04:39:34.035Z,3.03
2022-11-07T04:42:01.312Z,2.83
2022-11-07T04:44:28.278Z,3.03
2022-11-07T04:46:55.535Z,3.05
2022-11-07T04:49:22.486Z,2.85
2022-11-07T04:51:54.875Z,2.88
2022-11-07T04:54:22.162Z,3.17
2022-11-07T04:56:49.216Z,3.13
2022-11-07T04:59:16.221Z,2.75
2022-11-07T05:01:43.218Z,2.60
2022-11-07T05:04:10.747Z,2.60
2022-11-07T05:06:38.236Z,2.92
2022-11-07T05:09:06.644Z,3.40
2022-11-07T05:11:33.590Z,3.05
2022-11-07T05:14:00.862Z,3.20
2022-11-07T05:16:30.655Z,3.13
2022-11-07T05:18:57.667Z,3.55
2022-11-07T05:21:24.672Z,3.22
2022-11-07T05:23:51.734Z,3.10
2022-11-07T05:26:20.215Z,3.00
2022-11-07T05:28:47.495Z,3.20
2022-11-07T05:31:17.383Z,3.30
2022-11-07T05:33:44.730Z,2.92
2022-11-07T05:36:14.588Z,3.00
2022-11-07T05:38:42.793Z,2.92
2022-11-07T05:41:10.061Z,3.08
2022-11-07T05:43:39.149Z,3.30
2022-11-07T05:46:06.696Z,2.60
2022-11-07T05:48:34.025Z,3.22
2022-11-07T05:51:01.357Z,3.22
2022-11-07T05:53:28.864Z,2.97
2022-11-07T05:55:56.996Z,4.28
2022-11-07T05:58:24.346Z,3.25
2022-11-07T06:00:53.226Z,3.33
2022-11-07T06:03:20.820Z,3.97
2022-11-07T06:05:47.955Z,3.78
2022-11-07T06:08:15.469Z,3.03
2022-11-07T06:10:43.937Z,3.25
2022-11-07T06:13:13.436Z,3.17
2022-11-07T06:15:41.392Z,2.90
2022-11-07T06:18:13.531Z,3.28
2022-11-07T06:20:40.555Z,2.47
2022-11-07T06:23:07.587Z,2.90
2022-11-07T06:25:36.037Z,2.80
2022-11-07T06:28:05.518Z,2.80
2022-11-07T06:30:32.925Z,2.50
2022-11-07T06:33:01.224Z,2.97
2022-11-07T06:35:29.801Z,2.65
2022-11-07T06:37:56.806Z,3.17
2022-11-07T06:40:23.750Z,3.40
2022-11-07T06:42:50.759Z,3.15
2022-11-07T06:45:17.823Z,2.85
2022-11-07T06:47:45.308Z,2.50
2022-11-07T06:50:12.260Z,3.05
2022-11-07T06:52:40.648Z,3.10
2022-11-07T06:55:08.619Z,3.28
2022-11-07T06:57:35.686Z,3.03
2022-11-07T07:00:04.818Z,3.33
2022-11-07T07:02:56.725Z,3.15
2022-11-07T07:05:21.195Z,3.30
2022-11-07T07:07:50.280Z,3.05
2022-11-07T07:10:17.403Z,2.97
2022-11-07T07:12:44.551Z,2.97
2022-11-07T07:15:11.641Z,3.00
2022-11-07T07:17:38.617Z,3.28
2022-11-07T07:20:06.952Z,3.58
2022-11-07T07:22:33.915Z,2.80
2022-11-07T07:25:02.350Z,3.70
2022-11-07T07:27:29.341Z,3.15
2022-11-07T07:29:56.366Z,2.88
2022-11-07T07:32:25.214Z,2.60
2022-11-07T07:34:52.457Z,3.40
2022-11-07T07:37:19.480Z,3.30
2022-11-07T07:39:46.478Z,3.38
2022-11-07T07:42:15.130Z,3.83
2022-11-07T07:44:45.138Z,3.00
2022-11-07T07:47:12.320Z,3.05
2022-11-07T07:49:39.415Z,2.85
2022-11-07T07:52:06.803Z,3.20
2022-11-07T07:54:33.906Z,3.10
2022-11-07T07:57:01.507Z,3.42
2022-11-07T07:59:29.986Z,3.03
2022-11-07T08:01:57.725Z,2.72
2022-11-07T08:04:25.170Z,2.88
2022-11-07T08:06:52.283Z,3.13
2022-11-07T08:09:19.599Z,3.03
2022-11-07T08:11:46.518Z,2.75
2022-11-07T08:14:13.559Z,3.20
2022-11-07T08:16:42.205Z,2.33
2022-11-07T08:19:09.646Z,2.40
2022-11-07T08:21:36.636Z,2.63
2022-11-07T08:24:04.287Z,2.45
2022-11-07T08:26:31.405Z,2.72
2022-11-07T08:28:58.494Z,3.25
2022-11-07T08:31:25.542Z,2.97
2022-11-07T08:33:57.335Z,2.80
2022-11-07T08:36:24.871Z,2.55
2022-11-07T08:38:52.253Z,2.33
2022-11-07T08:41:22.368Z,2.42
2022-11-07T08:43:49.664Z,2.63
2022-11-07T08:46:16.761Z,2.65
2022-11-07T08:48:43.925Z,2.70
2022-11-07T08:51:12.276Z,3.05
2022-11-07T08:53:39.229Z,2.17
2022-11-07T08:56:08.379Z,2.53
2022-11-07T08:58:36.906Z,2.45
2022-11-07T09:01:07.106Z,2.47
2022-11-07T09:03:47.360Z,2.47
2022-11-07T09:06:19.351Z,2.45
2022-11-07T09:08:46.485Z,2.22
2022-11-07T09:11:15.886Z,2.60
2022-11-07T09:13:43.069Z,2.45
2022-11-07T09:16:11.061Z,2.25
2022-11-07T09:18:38.356Z,2.45
2022-11-07T09:21:05.608Z,3.05
2022-11-07T09:23:34.287Z,2.53
2022-11-07T09:26:04.378Z,2.60
2022-11-07T09:28:31.852Z,3.25
2022-11-07T09:31:00.206Z,3.63
2022-11-07T09:33:27.884Z,2.17
2022-11-07T09:35:55.007Z,2.47
2022-11-07T09:38:22.055Z,2.60
2022-11-07T09:40:57.171Z,2.50
2022-11-07T09:43:39.971Z,3.22
2022-11-07T09:46:17.451Z,3.17
2022-11-07T09:48:49.967Z,2.65
2022-11-07T09:51:25.651Z,2.70
2022-11-07T09:53:57.954Z,2.83
2022-11-07T09:56:29.336Z,2.53
2022-11-07T09:58:58.673Z,2.67
2022-11-07T10:01:31.158Z,3.67
2022-11-07T10:04:23.562Z,2.78
2022-11-07T10:06:50.894Z,3.20
2022-11-07T10:09:24.460Z,3.28
2022-11-07T10:12:01.398Z,2.60
2022-11-07T10:14:38.407Z,3.10
2022-11-07T10:17:16.752Z,3.63
2022-11-07T10:20:02.297Z,3.38
2022-11-07T10:22:42.104Z,2.92
2022-11-07T10:25:21.101Z,3.40
2022-11-07T10:27:55.192Z,3.08
2022-11-07T10:30:22.899Z,4.00
2022-11-07T10:33:01.508Z,2.88
2022-11-07T10:35:31.135Z,2.67
2022-11-07T10:38:00.551Z,3.10
2022-11-07T10:40:34.269Z,2.63
2022-11-07T10:43:05.639Z,3.42
2022-11-07T10:45:32.865Z,3.35
2022-11-07T10:48:02.824Z,3.65
2022-11-07T10:50:30.941Z,3.25
2022-11-07T10:53:00.222Z,3.03
2022-11-07T10:55:28.568Z,3.22
2022-11-07T10:57:59.729Z,3.25
2022-11-07T11:02:57.430Z,2.88
2022-11-07T11:05:32.836Z,2.90
2022-11-07T11:08:14.280Z,3.30
2022-11-07T11:10:41.495Z,3.28
2022-11-07T11:13:27.208Z,3.25
2022-11-07T11:16:05.330Z,2.92
2022-11-07T11:18:33.494Z,3.13
2022-11-07T11:21:02.980Z,3.10
2022-11-07T11:23:35.401Z,3.58
2022-11-07T11:26:07.459Z,3.05
2022-11-07T11:28:39.666Z,2.60
2022-11-07T11:31:13.289Z,3.38
2022-11-07T11:33:44.860Z,3.10
2022-11-07T11:36:16.446Z,3.15
2022-11-07T11:38:53.345Z,2.67
2022-11-07T11:41:25.283Z,2.97
2022-11-07T11:43:55.632Z,2.70
2022-11-07T11:46:30.895Z,3.38
2022-11-07T11:49:01.138Z,3.55
2022-11-07T11:51:36.830Z,2.93
2022-11-07T11:54:05.844Z,3.63
2022-11-07T11:56:43.547Z,2.60
2022-11-07T11:59:38.005Z,2.75
2022-11-07T12:02:30.422Z,3.25
2022-11-07T12:05:10.596Z,2.85
2022-11-07T12:07:50.776Z,2.97
2022-11-07T12:10:25.639Z,3.42
2022-11-07T12:13:05.301Z,2.45
2022-11-07T12:15:44.436Z,3.03
2022-11-07T12:18:21.538Z,2.92
2022-11-07T12:21:00.022Z,2.60
2022-11-07T12:23:43.336Z,2.75
2022-11-07T12:26:14.994Z,3.30
2022-11-07T12:28:51.731Z,2.83
2022-11-07T12:31:29.229Z,2.83
2022-11-07T12:34:08.399Z,3.25
2022-11-07T12:36:49.508Z,2.65
2022-11-07T12:39:29.802Z,2.58
2022-11-07T12:41:58.834Z,2.90
2022-11-07T12:44:42.875Z,3.00
2022-11-07T12:47:20.529Z,2.83
2022-11-07T12:50:04.406Z,3.13
2022-11-07T12:52:45.733Z,2.15
2022-11-07T12:57:51.435Z,2.55
2022-11-07T13:00:24.688Z,2.85
2022-11-07T13:03:10.143Z,3.35
2022-11-07T13:05:50.321Z,5.18
2022-11-07T13:08:26.468Z,3.28
2022-11-07T13:11:03.819Z,2.65
2022-11-07T13:13:41.200Z,1.92
2022-11-07T13:16:21.233Z,3.13
2022-11-07T13:18:49.066Z,4.03
2022-11-07T13:21:18.153Z,2.72
2022-11-07T13:23:46.982Z,2.53
2022-11-07T13:26:45.274Z,2.47
2022-11-07T13:29:02.534Z,2.67
2022-11-07T13:31:37.375Z,3.90
2022-11-07T13:34:26.562Z,2.50
2022-11-07T13:37:01.624Z,2.65
2022-11-07T13:39:29.911Z,2.50
2022-11-07T13:41:58.421Z,2.80
2022-11-07T13:44:28.175Z,2.30
2022-11-07T13:46:57.299Z,2.45
2022-11-07T13:49:28.701Z,2.55
2022-11-07T13:52:02.566Z,2.53
2022-11-07T13:54:35.240Z,2.65
2022-11-07T13:57:08.535Z,2.45
2022-11-07T13:59:43.315Z,2.45
2022-11-07T14:02:19.733Z,2.15
2022-11-07T14:05:14.623Z,2.33
2022-11-07T14:07:41.158Z,2.42
2022-11-07T14:10:21.243Z,2.75
2022-11-07T14:12:49.068Z,2.70
2022-11-07T14:15:17.454Z,2.20
2022-11-07T14:17:45.938Z,2.50
2022-11-07T14:20:16.876Z,2.92
2022-11-07T14:23:03.945Z,2.20
2022-11-07T14:25:33.342Z,2.92
2022-11-07T14:28:01.166Z,2.08
2022-11-07T14:30:29.949Z,2.53
2022-11-07T14:32:59.017Z,2.25
2022-11-07T14:35:28.670Z,2.63
2022-11-07T14:37:59.380Z,2.55
2022-11-07T14:40:27.385Z,2.35
2022-11-07T14:42:54.969Z,3.20
2022-11-07T14:45:55.055Z,2.90
2022-11-07T14:48:12.453Z,2.30
2022-11-07T14:50:40.099Z,2.53
2022-11-07T14:53:15.151Z,2.53
2022-11-07T14:55:45.921Z,2.20
2022-11-07T14:58:13.652Z,2.80
2022-11-07T15:00:51.812Z,2.60
2022-11-07T15:03:22.056Z,2.42
2022-11-07T15:05:49.378Z,2.40
2022-11-07T15:08:37.170Z,2.35
2022-11-07T15:11:06.881Z,2.55
2022-11-07T15:13:34.858Z,2.53
2022-11-07T15:16:05.597Z,2.92
2022-11-07T15:18:37.761Z,2.97
2022-11-07T15:21:06.498Z,2.60
2022-11-07T15:23:36.098Z,2.80
2022-11-07T15:26:12.390Z,3.28
2022-11-07T15:28:48.215Z,3.65
2022-11-07T15:31:21.594Z,2.65
2022-11-07T15:33:48.962Z,2.83
2022-11-07T15:36:16.222Z,2.50
2022-11-07T15:38:44.988Z,2.95
2022-11-07T15:41:12.718Z,3.22
2022-11-07T15:43:40.270Z,3.55
2022-11-07T15:46:25.763Z,3.13
2022-11-07T15:48:53.268Z,3.50
2022-11-07T15:51:20.490Z,3.33
2022-11-07T15:53:49.268Z,2.95
2022-11-07T15:56:20.333Z,2.88
2022-11-07T15:58:48.032Z,3.38
2022-11-07T16:01:15.270Z,2.90
2022-11-07T16:03:42.401Z,3.40
2022-11-07T16:06:17.736Z,2.83
2022-11-07T16:08:44.753Z,3.50
2022-11-07T16:11:13.236Z,3.42
2022-11-07T16:13:40.382Z,4.40
2022-11-07T16:16:15.141Z,3.20
2022-11-07T16:18:45.029Z,3.72
2022-11-07T16:21:12.105Z,3.47
2022-11-07T16:23:39.859Z,3.70
2022-11-07T16:26:06.952Z,2.88
2022-11-07T16:28:35.908Z,3.33
2022-11-07T16:31:03.275Z,3.05
2022-11-07T16:33:30.832Z,3.45
2022-11-07T16:36:00.857Z,2.75
2022-11-07T16:38:34.921Z,3.83
2022-11-07T16:41:02.951Z,3.95
2022-11-07T16:43:34.953Z,3.95
2022-11-07T16:46:05.670Z,3.40
2022-11-07T16:48:37.328Z,3.72
2022-11-07T16:51:04.754Z,3.90
2022-11-07T16:53:32.271Z,3.40
2022-11-07T16:56:03.049Z,3.55
2022-11-07T16:58:31.893Z,3.20
2022-11-07T17:01:07.559Z,3.42
2022-11-07T17:03:36.188Z,3.55
2022-11-07T17:06:05.440Z,3.28
2022-11-07T17:08:37.791Z,3.28
2022-11-07T17:11:05.505Z,3.75
2022-11-07T17:13:32.778Z,3.05
2022-11-07T17:16:00.496Z,3.00
2022-11-07T17:18:27.874Z,3.75
2022-11-07T17:20:57.106Z,3.17
2022-11-07T17:23:29.919Z,3.78
2022-11-07T17:26:02.406Z,2.92
2022-11-07T17:28:29.931Z,3.03
2022-11-07T17:30:57.030Z,3.80
2022-11-07T17:33:24.244Z,2.83
2022-11-07T17:35:54.850Z,2.97
2022-11-07T17:38:25.345Z,3.35
2022-11-07T17:40:52.792Z,2.55
2022-11-07T17:43:19.863Z,3.30
2022-11-07T17:45:46.890Z,3.50
2022-11-07T17:48:14.142Z,3.55
2022-11-07T17:50:41.963Z,3.10
2022-11-07T17:53:09.011Z,3.05
2022-11-07T17:55:37.447Z,2.95
2022-11-07T17:58:05.270Z,3.05
2022-11-07T18:00:32.236Z,2.65
2022-11-07T18:02:59.403Z,2.75
2022-11-07T18:05:31.958Z,2.80
2022-11-07T18:08:00.259Z,3.08
2022-11-07T18:10:27.528Z,3.05
2022-11-07T18:12:57.691Z,2.63
2022-11-07T18:15:24.716Z,3.33
2022-11-07T18:17:51.717Z,2.97
2022-11-07T18:20:18.842Z,4.43
2022-11-07T18:22:46.348Z,3.38
2022-11-07T18:25:13.427Z,3.10
2022-11-07T18:27:40.665Z,3.42
2022-11-07T18:30:10.986Z,6.20
2022-11-07T18:32:38.031Z,6.78
2022-11-07T18:35:10.245Z,4.35
2022-11-07T18:37:37.254Z,3.70
2022-11-07T18:40:05.874Z,3.13
2022-11-07T18:42:32.943Z,2.78
2022-11-07T18:44:59.992Z,2.50
2022-11-07T18:47:30.826Z,3.33
2022-11-07T18:49:57.869Z,3.38
2022-11-07T18:52:24.971Z,3.22
2022-11-07T18:54:52.394Z,3.60
2022-11-07T18:57:19.403Z,3.33
2022-11-07T18:59:46.481Z,4.68
2022-11-07T19:02:14.166Z,4.05
2022-11-07T19:04:44.567Z,2.90
2022-11-07T19:07:11.634Z,3.00
2022-11-07T19:09:38.760Z,3.20
2022-11-07T19:12:06.568Z,4.60
2022-11-07T19:14:34.115Z,3.78
2022-11-07T19:17:04.386Z,3.85
2022-11-07T19:19:32.179Z,3.08
2022-11-07T19:22:01.513Z,2.90
2022-11-07T19:24:29.302Z,2.80
2022-11-07T19:26:56.411Z,3.10
2022-11-07T19:29:23.522Z,2.97
2022-11-07T19:31:50.616Z,3.15
2022-11-07T19:34:18.100Z,2.72
2022-11-07T19:36:45.582Z,2.35
2022-11-07T19:39:14.052Z,2.80
2022-11-07T19:41:41.112Z,2.95
2022-11-07T19:44:11.208Z,3.15
2022-11-07T19:46:38.853Z,2.85
2022-11-07T19:49:06.133Z,2.60
2022-11-07T19:51:33.227Z,3.03
2022-11-07T19:54:00.795Z,2.90
2022-11-07T19:56:34.060Z,2.60
2022-11-07T19:59:03.343Z,3.00
2022-11-07T20:01:32.449Z,2.90
2022-11-07T20:04:00.807Z,3.58
2022-11-07T20:06:30.619Z,3.00
2022-11-07T20:08:58.250Z,2.97
2022-11-07T20:11:26.379Z,2.65
2022-11-07T20:14:00.074Z,3.22
2022-11-07T20:16:32.264Z,3.10
2022-11-07T20:18:59.763Z,3.10
2022-11-07T20:21:28.880Z,3.00
2022-11-07T20:23:57.996Z,3.78
2022-11-07T20:26:26.353Z,3.60
2022-11-07T20:28:55.027Z,3.55
2022-11-07T20:31:25.294Z,2.80
2022-11-07T20:33:52.943Z,3.07
2022-11-07T20:36:20.352Z,2.47
2022-11-07T20:38:47.526Z,2.80
2022-11-07T20:41:14.956Z,2.45
2022-11-07T20:43:43.719Z,2.80
2022-11-07T20:46:17.511Z,2.50
2022-11-07T20:48:45.102Z,2.50
2022-11-07T20:51:14.026Z,2.85
2022-11-07T20:53:46.747Z,2.95
2022-11-07T20:56:18.132Z,2.60
2022-11-07T20:58:46.577Z,2.67
2022-11-07T21:01:19.958Z,3.15
2022-11-07T21:03:48.334Z,3.55
2022-11-07T21:06:16.334Z,3.33
2022-11-07T21:08:46.954Z,3.13
2022-11-07T21:11:14.947Z,3.05
2022-11-07T21:13:45.426Z,2.92
2022-11-07T21:16:15.194Z,2.22
2022-11-07T21:18:43.495Z,2.78
2022-11-07T21:21:12.507Z,2.83
2022-11-07T21:23:39.888Z,2.30
2022-11-07T21:26:08.352Z,2.33
2022-11-07T21:28:36.908Z,2.40
2022-11-07T21:31:05.837Z,2.40
2022-11-07T21:33:33.350Z,3.42
2022-11-07T21:36:01.719Z,2.58
2022-11-07T21:38:28.689Z,3.10
2022-11-07T21:40:55.676Z,2.58
2022-11-07T21:43:22.676Z,3.28
2022-11-07T21:45:49.620Z,3.40
2022-11-07T21:48:16.725Z,2.70
2022-11-07T21:50:45.243Z,2.78
2022-11-07T21:53:14.156Z,2.70
2022-11-07T21:55:41.416Z,2.75
2022-11-07T21:58:08.449Z,2.42
2022-11-07T22:00:36.861Z,2.40
2022-11-07T22:03:04.516Z,2.53
2022-11-07T22:05:31.474Z,2.35
2022-11-07T22:07:58.956Z,3.28
2022-11-07T22:10:27.283Z,2.55
2022-11-07T22:12:54.224Z,2.15
2022-11-07T22:15:21.178Z,2.40
2022-11-07T22:17:48.241Z,2.10
2022-11-07T22:20:15.255Z,2.63
2022-11-07T22:22:42.369Z,2.17
2022-11-07T22:25:09.738Z,2.20
2022-11-07T22:27:38.439Z,1.90
2022-11-07T22:30:06.330Z,2.00
2022-11-07T22:32:33.595Z,2.10
2022-11-07T22:35:03.740Z,2.25
2022-11-07T22:37:35.116Z,2.10
2022-11-07T22:40:02.178Z,2.38
2022-11-07T22:42:29.162Z,2.38
2022-11-07T22:44:57.468Z,2.40
2022-11-07T22:47:24.447Z,2.20
2022-11-07T22:49:51.428Z,2.00
2022-11-07T22:52:18.393Z,2.53
2022-11-07T22:54:45.487Z,2.40
2022-11-07T22:57:17.580Z,2.20
2022-11-07T22:59:44.872Z,2.00
2022-11-07T23:02:13.239Z,2.55
2022-11-07T23:04:40.551Z,2.10
2022-11-07T23:07:07.515Z,2.58
2022-11-07T23:09:34.567Z,2.50
2022-11-07T23:12:01.545Z,1.98
2022-11-07T23:14:28.594Z,2.30
2022-11-07T23:16:55.593Z,2.58
2022-11-07T23:19:25.802Z,2.10
2022-11-07T23:21:54.741Z,2.85
2022-11-07T23:24:21.755Z,2.28
2022-11-07T23:26:49.313Z,2.17
2022-11-07T23:29:18.130Z,2.45
2022-11-07T23:31:46.952Z,2.50
2022-11-07T23:34:14.851Z,3.13
2022-11-07T23:36:44.737Z,2.40
2022-11-07T23:39:14.524Z,2.58
2022-11-07T23:41:41.785Z,2.67
2022-11-07T23:44:09.966Z,2.50
2022-11-07T23:46:55.844Z,2.45
2022-11-07T23:49:41.566Z,2.10
2022-11-07T23:52:09.921Z,2.78
2022-11-07T23:54:55.355Z,2.30
2022-11-07T23:57:22.361Z,3.13
